sensor_id;sensor_type;location;lat;lon;timestamp;P1;durP1;ratioP1;P2;durP2;ratioP2
36497;SDS011;22513;51.222;6.480;2022-10-30T00:01:12;14.38;;;8.68;;
36497;SDS011;22513;51.222;6.480;2022-10-30T00:03:38;18.85;;;8.20;;
36497;SDS011;22513;51.222;6.480;2022-10-30T00:06:04;15.90;;;7.60;;
36497;SDS011;22513;51.222;6.480;2022-10-30T00:08:30;24.58;;;7.90;;
36497;SDS011;22513;51.222;6.480;2022-10-30T00:10:56;17.00;;;7.85;;
36497;SDS011;22513;51.222;6.480;2022-10-30T00:15:52;18.20;;;8.80;;
36497;SDS011;22513;51.222;6.480;2022-10-30T00:18:18;18.77;;;8.63;;
36497;SDS011;22513;51.222;6.480;2022-10-30T00:20:44;19.23;;;8.68;;
36497;SDS011;22513;51.222;6.480;2022-10-30T00:23:10;14.95;;;9.43;;
36497;SDS011;22513;51.222;6.480;2022-10-30T00:25:36;22.50;;;9.82;;
36497;SDS011;22513;51.222;6.480;2022-10-30T00:28:02;17.05;;;9.60;;
36497;SDS011;22513;51.222;6.480;2022-10-30T00:30:29;18.95;;;10.30;;
36497;SDS011;22513;51.222;6.480;2022-10-30T00:32:54;15.05;;;9.88;;
36497;SDS011;22513;51.222;6.480;2022-10-30T00:35:20;15.93;;;9.95;;
36497;SDS011;22513;51.222;6.480;2022-10-30T00:37:45;20.48;;;10.50;;
36497;SDS011;22513;51.222;6.480;2022-10-30T00:40:14;17.73;;;10.75;;
36497;SDS011;22513;51.222;6.480;2022-10-30T00:42:41;22.85;;;10.95;;
36497;SDS011;22513;51.222;6.480;2022-10-30T00:45:09;20.17;;;11.02;;
36497;SDS011;22513;51.222;6.480;2022-10-30T00:47:37;19.00;;;11.32;;
36497;SDS011;22513;51.222;6.480;2022-10-30T00:50:08;22.63;;;10.95;;
36497;SDS011;22513;51.222;6.480;2022-10-30T00:52:46;18.45;;;11.00;;
36497;SDS011;22513;51.222;6.480;2022-10-30T00:55:19;25.67;;;12.45;;
36497;SDS011;22513;51.222;6.480;2022-10-30T00:57:50;18.20;;;12.00;;
36497;SDS011;22513;51.222;6.480;2022-10-30T01:00:18;22.58;;;12.07;;
36497;SDS011;22513;51.222;6.480;2022-10-30T01:02:46;20.73;;;12.35;;
36497;SDS011;22513;51.222;6.480;2022-10-30T01:05:14;21.25;;;12.63;;
36497;SDS011;22513;51.222;6.480;2022-10-30T01:07:42;23.67;;;13.97;;
36497;SDS011;22513;51.222;6.480;2022-10-30T01:10:07;17.92;;;13.25;;
36497;SDS011;22513;51.222;6.480;2022-10-30T01:12:34;25.13;;;13.48;;
36497;SDS011;22513;51.222;6.480;2022-10-30T01:15:00;19.80;;;13.32;;
36497;SDS011;22513;51.222;6.480;2022-10-30T01:30:54;21.08;;;12.45;;
36497;SDS011;22513;51.222;6.480;2022-10-30T01:33:32;22.60;;;13.15;;
36497;SDS011;22513;51.222;6.480;2022-10-30T01:39:10;22.83;;;11.90;;
36497;SDS011;22513;51.222;6.480;2022-10-30T01:44:10;17.23;;;10.02;;
36497;SDS011;22513;51.222;6.480;2022-10-30T02:02:26;18.05;;;10.60;;
36497;SDS011;22513;51.222;6.480;2022-10-30T02:04:52;24.67;;;10.65;;
36497;SDS011;22513;51.222;6.480;2022-10-30T02:07:17;17.40;;;9.70;;
36497;SDS011;22513;51.222;6.480;2022-10-30T02:09:43;18.70;;;10.60;;
36497;SDS011;22513;51.222;6.480;2022-10-30T02:12:09;19.77;;;11.18;;
36497;SDS011;22513;51.222;6.480;2022-10-30T02:14:36;24.95;;;12.73;;
36497;SDS011;22513;51.222;6.480;2022-10-30T02:19:31;21.75;;;10.73;;
36497;SDS011;22513;51.222;6.480;2022-10-30T02:21:57;23.65;;;11.85;;
36497;SDS011;22513;51.222;6.480;2022-10-30T02:24:23;16.65;;;10.05;;
36497;SDS011;22513;51.222;6.480;2022-10-30T02:26:48;19.13;;;12.00;;
36497;SDS011;22513;51.222;6.480;2022-10-30T02:29:14;23.95;;;12.15;;
36497;SDS011;22513;51.222;6.480;2022-10-30T02:31:39;21.25;;;11.65;;
36497;SDS011;22513;51.222;6.480;2022-10-30T02:34:05;23.10;;;10.15;;
36497;SDS011;22513;51.222;6.480;2022-10-30T02:36:31;20.13;;;12.38;;
36497;SDS011;22513;51.222;6.480;2022-10-30T02:38:56;20.38;;;11.40;;
36497;SDS011;22513;51.222;6.480;2022-10-30T02:41:22;19.30;;;10.52;;
36497;SDS011;22513;51.222;6.480;2022-10-30T02:43:49;17.65;;;11.13;;
36497;SDS011;22513;51.222;6.480;2022-10-30T02:46:15;18.17;;;10.73;;
36497;SDS011;22513;51.222;6.480;2022-10-30T02:48:41;24.83;;;10.82;;
36497;SDS011;22513;51.222;6.480;2022-10-30T02:51:06;23.42;;;11.10;;
36497;SDS011;22513;51.222;6.480;2022-10-30T02:53:32;24.38;;;11.30;;
36497;SDS011;22513;51.222;6.480;2022-10-30T02:56:01;23.02;;;11.77;;
36497;SDS011;22513;51.222;6.480;2022-10-30T02:58:28;23.23;;;12.68;;
36497;SDS011;22513;51.222;6.480;2022-10-30T03:00:54;18.85;;;12.88;;
36497;SDS011;22513;51.222;6.480;2022-10-30T03:03:19;26.63;;;11.88;;
36497;SDS011;22513;51.222;6.480;2022-10-30T03:05:45;18.95;;;11.50;;
36497;SDS011;22513;51.222;6.480;2022-10-30T03:08:11;22.02;;;12.90;;
36497;SDS011;22513;51.222;6.480;2022-10-30T03:10:36;23.55;;;11.60;;
36497;SDS011;22513;51.222;6.480;2022-10-30T03:13:02;20.02;;;12.65;;
36497;SDS011;22513;51.222;6.480;2022-10-30T03:15:27;21.80;;;13.45;;
36497;SDS011;22513;51.222;6.480;2022-10-30T03:17:53;23.05;;;13.50;;
36497;SDS011;22513;51.222;6.480;2022-10-30T03:20:19;27.77;;;13.48;;
36497;SDS011;22513;51.222;6.480;2022-10-30T03:22:45;25.33;;;13.52;;
36497;SDS011;22513;51.222;6.480;2022-10-30T03:25:10;23.98;;;13.82;;
36497;SDS011;22513;51.222;6.480;2022-10-30T03:27:36;22.90;;;12.95;;
36497;SDS011;22513;51.222;6.480;2022-10-30T03:30:02;21.02;;;13.50;;
36497;SDS011;22513;51.222;6.480;2022-10-30T03:32:28;21.58;;;14.02;;
36497;SDS011;22513;51.222;6.480;2022-10-30T03:34:53;26.52;;;13.27;;
36497;SDS011;22513;51.222;6.480;2022-10-30T03:37:19;27.00;;;12.45;;
36497;SDS011;22513;51.222;6.480;2022-10-30T03:39:44;28.92;;;14.23;;
36497;SDS011;22513;51.222;6.480;2022-10-30T03:42:10;23.33;;;12.13;;
36497;SDS011;22513;51.222;6.480;2022-10-30T03:44:35;22.52;;;11.82;;
36497;SDS011;22513;51.222;6.480;2022-10-30T03:47:01;22.80;;;12.35;;
36497;SDS011;22513;51.222;6.480;2022-10-30T03:49:26;23.15;;;11.63;;
36497;SDS011;22513;51.222;6.480;2022-10-30T03:51:52;19.70;;;11.52;;
36497;SDS011;22513;51.222;6.480;2022-10-30T03:54:18;25.88;;;11.77;;
36497;SDS011;22513;51.222;6.480;2022-10-30T03:56:43;28.08;;;12.23;;
36497;SDS011;22513;51.222;6.480;2022-10-30T03:59:10;23.20;;;12.63;;
36497;SDS011;22513;51.222;6.480;2022-10-30T04:01:36;22.60;;;12.55;;
36497;SDS011;22513;51.222;6.480;2022-10-30T04:04:02;27.25;;;13.30;;
36497;SDS011;22513;51.222;6.480;2022-10-30T04:06:27;21.30;;;13.13;;
36497;SDS011;22513;51.222;6.480;2022-10-30T04:08:53;28.63;;;13.35;;
36497;SDS011;22513;51.222;6.480;2022-10-30T04:11:19;23.92;;;13.30;;
36497;SDS011;22513;51.222;6.480;2022-10-30T04:13:45;24.27;;;12.23;;
36497;SDS011;22513;51.222;6.480;2022-10-30T04:16:10;25.92;;;13.45;;
36497;SDS011;22513;51.222;6.480;2022-10-30T04:18:36;25.38;;;14.25;;
36497;SDS011;22513;51.222;6.480;2022-10-30T04:21:02;25.67;;;13.35;;
36497;SDS011;22513;51.222;6.480;2022-10-30T04:23:28;26.13;;;13.48;;
36497;SDS011;22513;51.222;6.480;2022-10-30T04:25:53;32.25;;;13.93;;
36497;SDS011;22513;51.222;6.480;2022-10-30T04:28:19;20.38;;;11.93;;
36497;SDS011;22513;51.222;6.480;2022-10-30T04:30:45;22.90;;;12.25;;
36497;SDS011;22513;51.222;6.480;2022-10-30T04:33:12;20.40;;;14.07;;
36497;SDS011;22513;51.222;6.480;2022-10-30T04:35:37;26.80;;;12.25;;
36497;SDS011;22513;51.222;6.480;2022-10-30T04:38:05;21.20;;;12.95;;
36497;SDS011;22513;51.222;6.480;2022-10-30T04:40:33;25.52;;;12.98;;
36497;SDS011;22513;51.222;6.480;2022-10-30T04:43:00;25.58;;;12.68;;
36497;SDS011;22513;51.222;6.480;2022-10-30T04:45:27;23.77;;;12.85;;
36497;SDS011;22513;51.222;6.480;2022-10-30T04:47:54;24.13;;;12.38;;
36497;SDS011;22513;51.222;6.480;2022-10-30T04:50:25;22.90;;;11.43;;
36497;SDS011;22513;51.222;6.480;2022-10-30T04:52:58;24.20;;;12.93;;
36497;SDS011;22513;51.222;6.480;2022-10-30T04:55:25;21.33;;;12.85;;
36497;SDS011;22513;51.222;6.480;2022-10-30T04:57:54;23.77;;;12.38;;
36497;SDS011;22513;51.222;6.480;2022-10-30T05:00:20;24.58;;;12.95;;
36497;SDS011;22513;51.222;6.480;2022-10-30T05:02:46;24.52;;;13.10;;
36497;SDS011;22513;51.222;6.480;2022-10-30T05:05:12;24.85;;;13.48;;
36497;SDS011;22513;51.222;6.480;2022-10-30T05:07:37;27.35;;;13.15;;
36497;SDS011;22513;51.222;6.480;2022-10-30T05:10:03;25.35;;;13.77;;
36497;SDS011;22513;51.222;6.480;2022-10-30T05:12:29;22.38;;;12.95;;
36497;SDS011;22513;51.222;6.480;2022-10-30T05:14:54;22.23;;;12.45;;
36497;SDS011;22513;51.222;6.480;2022-10-30T05:17:20;24.23;;;13.45;;
36497;SDS011;22513;51.222;6.480;2022-10-30T05:19:45;23.80;;;13.95;;
36497;SDS011;22513;51.222;6.480;2022-10-30T05:22:11;22.95;;;12.95;;
36497;SDS011;22513;51.222;6.480;2022-10-30T05:24:37;26.15;;;14.57;;
36497;SDS011;22513;51.222;6.480;2022-10-30T05:27:02;28.15;;;14.35;;
36497;SDS011;22513;51.222;6.480;2022-10-30T05:29:28;27.15;;;14.50;;
36497;SDS011;22513;51.222;6.480;2022-10-30T05:31:54;24.42;;;12.55;;
36497;SDS011;22513;51.222;6.480;2022-10-30T05:34:19;22.48;;;13.85;;
36497;SDS011;22513;51.222;6.480;2022-10-30T05:36:45;22.40;;;13.43;;
36497;SDS011;22513;51.222;6.480;2022-10-30T05:39:10;24.58;;;14.27;;
36497;SDS011;22513;51.222;6.480;2022-10-30T05:41:36;23.65;;;14.00;;
36497;SDS011;22513;51.222;6.480;2022-10-30T05:44:02;27.77;;;14.05;;
36497;SDS011;22513;51.222;6.480;2022-10-30T05:46:27;27.45;;;14.57;;
36497;SDS011;22513;51.222;6.480;2022-10-30T05:48:53;23.77;;;13.50;;
36497;SDS011;22513;51.222;6.480;2022-10-30T05:51:18;30.08;;;13.63;;
36497;SDS011;22513;51.222;6.480;2022-10-30T05:53:46;30.23;;;14.65;;
36497;SDS011;22513;51.222;6.480;2022-10-30T05:56:12;26.20;;;14.90;;
36497;SDS011;22513;51.222;6.480;2022-10-30T05:58:41;27.98;;;15.32;;
36497;SDS011;22513;51.222;6.480;2022-10-30T06:01:07;27.13;;;15.73;;
36497;SDS011;22513;51.222;6.480;2022-10-30T06:03:32;31.42;;;15.20;;
36497;SDS011;22513;51.222;6.480;2022-10-30T06:05:58;32.65;;;16.23;;
36497;SDS011;22513;51.222;6.480;2022-10-30T06:08:23;26.77;;;16.48;;
36497;SDS011;22513;51.222;6.480;2022-10-30T06:10:49;23.63;;;14.60;;
36497;SDS011;22513;51.222;6.480;2022-10-30T06:13:15;26.15;;;16.02;;
36497;SDS011;22513;51.222;6.480;2022-10-30T06:15:40;31.48;;;15.68;;
36497;SDS011;22513;51.222;6.480;2022-10-30T06:18:06;26.25;;;15.57;;
36497;SDS011;22513;51.222;6.480;2022-10-30T06:20:31;24.60;;;15.43;;
36497;SDS011;22513;51.222;6.480;2022-10-30T06:23:01;30.75;;;15.05;;
36497;SDS011;22513;51.222;6.480;2022-10-30T06:25:29;27.52;;;14.68;;
36497;SDS011;22513;51.222;6.480;2022-10-30T06:27:56;27.45;;;15.40;;
36497;SDS011;22513;51.222;6.480;2022-10-30T06:30:22;27.85;;;14.82;;
36497;SDS011;22513;51.222;6.480;2022-10-30T06:32:48;29.67;;;15.38;;
36497;SDS011;22513;51.222;6.480;2022-10-30T06:35:14;31.20;;;14.45;;
36497;SDS011;22513;51.222;6.480;2022-10-30T06:37:49;24.00;;;15.05;;
36497;SDS011;22513;51.222;6.480;2022-10-30T06:40:17;26.30;;;16.25;;
36497;SDS011;22513;51.222;6.480;2022-10-30T06:42:44;24.55;;;15.60;;
36497;SDS011;22513;51.222;6.480;2022-10-30T06:45:11;25.13;;;14.48;;
36497;SDS011;22513;51.222;6.480;2022-10-30T06:47:37;28.02;;;15.15;;
36497;SDS011;22513;51.222;6.480;2022-10-30T06:50:03;22.70;;;14.52;;
36497;SDS011;22513;51.222;6.480;2022-10-30T06:52:30;21.73;;;13.52;;
36497;SDS011;22513;51.222;6.480;2022-10-30T06:54:56;26.13;;;14.20;;
36497;SDS011;22513;51.222;6.480;2022-10-30T06:57:22;25.20;;;13.70;;
36497;SDS011;22513;51.222;6.480;2022-10-30T06:59:47;25.05;;;14.35;;
36497;SDS011;22513;51.222;6.480;2022-10-30T07:02:13;21.98;;;14.38;;
36497;SDS011;22513;51.222;6.480;2022-10-30T07:04:38;23.92;;;12.90;;
36497;SDS011;22513;51.222;6.480;2022-10-30T07:07:04;22.60;;;13.00;;
36497;SDS011;22513;51.222;6.480;2022-10-30T07:09:29;23.30;;;11.77;;
36497;SDS011;22513;51.222;6.480;2022-10-30T07:11:55;20.02;;;12.23;;
36497;SDS011;22513;51.222;6.480;2022-10-30T07:14:21;18.30;;;11.52;;
36497;SDS011;22513;51.222;6.480;2022-10-30T07:16:46;13.45;;;8.80;;
36497;SDS011;22513;51.222;6.480;2022-10-30T07:19:12;13.55;;;8.38;;
36497;SDS011;22513;51.222;6.480;2022-10-30T07:21:38;15.98;;;9.85;;
36497;SDS011;22513;51.222;6.480;2022-10-30T07:24:03;17.75;;;9.85;;
36497;SDS011;22513;51.222;6.480;2022-10-30T07:26:29;16.85;;;9.55;;
36497;SDS011;22513;51.222;6.480;2022-10-30T07:28:55;21.73;;;9.77;;
36497;SDS011;22513;51.222;6.480;2022-10-30T07:31:20;14.90;;;8.93;;
36497;SDS011;22513;51.222;6.480;2022-10-30T07:33:46;15.38;;;8.43;;
36497;SDS011;22513;51.222;6.480;2022-10-30T07:36:11;20.65;;;9.35;;
36497;SDS011;22513;51.222;6.480;2022-10-30T07:38:38;22.52;;;10.43;;
36497;SDS011;22513;51.222;6.480;2022-10-30T07:41:04;18.17;;;10.77;;
36497;SDS011;22513;51.222;6.480;2022-10-30T07:43:30;17.08;;;9.82;;
36497;SDS011;22513;51.222;6.480;2022-10-30T07:45:55;16.63;;;9.25;;
36497;SDS011;22513;51.222;6.480;2022-10-30T07:48:21;17.38;;;9.77;;
36497;SDS011;22513;51.222;6.480;2022-10-30T07:50:47;16.63;;;8.98;;
36497;SDS011;22513;51.222;6.480;2022-10-30T07:53:12;17.70;;;9.90;;
36497;SDS011;22513;51.222;6.480;2022-10-30T07:55:38;18.30;;;8.98;;
36497;SDS011;22513;51.222;6.480;2022-10-30T07:58:08;22.58;;;8.88;;
36497;SDS011;22513;51.222;6.480;2022-10-30T08:00:34;14.98;;;9.07;;
36497;SDS011;22513;51.222;6.480;2022-10-30T08:02:59;16.33;;;9.88;;
36497;SDS011;22513;51.222;6.480;2022-10-30T08:05:25;12.57;;;8.50;;
36497;SDS011;22513;51.222;6.480;2022-10-30T08:07:51;19.75;;;9.27;;
36497;SDS011;22513;51.222;6.480;2022-10-30T08:10:16;20.00;;;8.30;;
36497;SDS011;22513;51.222;6.480;2022-10-30T08:12:42;14.90;;;8.50;;
36497;SDS011;22513;51.222;6.480;2022-10-30T08:15:10;18.63;;;9.30;;
36497;SDS011;22513;51.222;6.480;2022-10-30T08:17:46;13.35;;;8.63;;
36497;SDS011;22513;51.222;6.480;2022-10-30T08:20:13;18.75;;;8.80;;
36497;SDS011;22513;51.222;6.480;2022-10-30T08:22:53;20.17;;;7.80;;
36497;SDS011;22513;51.222;6.480;2022-10-30T08:25:21;14.32;;;7.55;;
36497;SDS011;22513;51.222;6.480;2022-10-30T08:27:55;15.23;;;8.57;;
36497;SDS011;22513;51.222;6.480;2022-10-30T08:30:23;20.55;;;8.18;;
36497;SDS011;22513;51.222;6.480;2022-10-30T08:32:50;14.98;;;7.80;;
36497;SDS011;22513;51.222;6.480;2022-10-30T08:35:15;17.00;;;9.00;;
36497;SDS011;22513;51.222;6.480;2022-10-30T08:37:41;15.25;;;7.90;;
36497;SDS011;22513;51.222;6.480;2022-10-30T08:40:08;16.85;;;8.48;;
36497;SDS011;22513;51.222;6.480;2022-10-30T08:42:34;18.17;;;8.40;;
36497;SDS011;22513;51.222;6.480;2022-10-30T08:45:00;13.65;;;7.35;;
36497;SDS011;22513;51.222;6.480;2022-10-30T08:47:25;14.15;;;7.35;;
36497;SDS011;22513;51.222;6.480;2022-10-30T08:49:51;12.50;;;7.15;;
36497;SDS011;22513;51.222;6.480;2022-10-30T08:52:17;14.88;;;7.15;;
36497;SDS011;22513;51.222;6.480;2022-10-30T08:54:43;12.57;;;6.78;;
36497;SDS011;22513;51.222;6.480;2022-10-30T08:57:08;16.92;;;8.18;;
36497;SDS011;22513;51.222;6.480;2022-10-30T08:59:34;19.17;;;7.50;;
36497;SDS011;22513;51.222;6.480;2022-10-30T09:02:00;14.63;;;7.97;;
36497;SDS011;22513;51.222;6.480;2022-10-30T09:04:25;14.68;;;7.88;;
36497;SDS011;22513;51.222;6.480;2022-10-30T09:06:51;15.73;;;6.45;;
36497;SDS011;22513;51.222;6.480;2022-10-30T09:09:16;17.90;;;7.45;;
36497;SDS011;22513;51.222;6.480;2022-10-30T09:11:42;12.00;;;7.22;;
36497;SDS011;22513;51.222;6.480;2022-10-30T09:14:07;17.23;;;7.88;;
36497;SDS011;22513;51.222;6.480;2022-10-30T09:16:33;18.98;;;8.07;;
36497;SDS011;22513;51.222;6.480;2022-10-30T09:18:59;14.00;;;8.38;;
36497;SDS011;22513;51.222;6.480;2022-10-30T09:21:24;14.48;;;7.65;;
36497;SDS011;22513;51.222;6.480;2022-10-30T09:23:50;15.13;;;7.75;;
36497;SDS011;22513;51.222;6.480;2022-10-30T09:26:15;16.23;;;7.15;;
36497;SDS011;22513;51.222;6.480;2022-10-30T09:28:41;13.38;;;7.97;;
36497;SDS011;22513;51.222;6.480;2022-10-30T09:31:06;15.10;;;7.53;;
36497;SDS011;22513;51.222;6.480;2022-10-30T09:33:32;14.38;;;7.70;;
36497;SDS011;22513;51.222;6.480;2022-10-30T09:35:58;16.85;;;6.65;;
36497;SDS011;22513;51.222;6.480;2022-10-30T09:38:23;16.73;;;6.93;;
36497;SDS011;22513;51.222;6.480;2022-10-30T09:54:26;13.43;;;6.72;;
36497;SDS011;22513;51.222;6.480;2022-10-30T10:02:35;12.18;;;6.78;;
36497;SDS011;22513;51.222;6.480;2022-10-30T10:07:41;13.85;;;6.32;;
36497;SDS011;22513;51.222;6.480;2022-10-30T10:10:19;16.00;;;7.43;;
36497;SDS011;22513;51.222;6.480;2022-10-30T10:16:22;18.13;;;7.25;;
36497;SDS011;22513;51.222;6.480;2022-10-30T10:21:25;10.00;;;6.45;;
36497;SDS011;22513;51.222;6.480;2022-10-30T10:23:57;11.43;;;6.35;;
36497;SDS011;22513;51.222;6.480;2022-10-30T10:29:31;13.48;;;6.95;;
36497;SDS011;22513;51.222;6.480;2022-10-30T10:37:33;13.77;;;7.00;;
36497;SDS011;22513;51.222;6.480;2022-10-30T10:50:39;13.52;;;6.88;;
36497;SDS011;22513;51.222;6.480;2022-10-30T10:55:52;13.57;;;7.22;;
36497;SDS011;22513;51.222;6.480;2022-10-30T11:01:03;13.63;;;6.63;;
36497;SDS011;22513;51.222;6.480;2022-10-30T11:06:21;15.27;;;6.07;;
36497;SDS011;22513;51.222;6.480;2022-10-30T11:08:55;17.38;;;6.75;;
36497;SDS011;22513;51.222;6.480;2022-10-30T11:11:43;16.33;;;6.10;;
36497;SDS011;22513;51.222;6.480;2022-10-30T11:14:20;13.43;;;6.15;;
36497;SDS011;22513;51.222;6.480;2022-10-30T11:19:28;10.57;;;6.00;;
36497;SDS011;22513;51.222;6.480;2022-10-30T11:21:55;14.85;;;6.65;;
36497;SDS011;22513;51.222;6.480;2022-10-30T11:26:51;14.87;;;6.30;;
36497;SDS011;22513;51.222;6.480;2022-10-30T11:29:21;15.98;;;5.95;;
36497;SDS011;22513;51.222;6.480;2022-10-30T11:32:00;15.57;;;6.03;;
36497;SDS011;22513;51.222;6.480;2022-10-30T11:34:31;9.27;;;5.10;;
36497;SDS011;22513;51.222;6.480;2022-10-30T11:37:06;13.93;;;6.20;;
36497;SDS011;22513;51.222;6.480;2022-10-30T11:42:37;13.82;;;5.65;;
36497;SDS011;22513;51.222;6.480;2022-10-30T11:47:38;15.07;;;6.70;;
36497;SDS011;22513;51.222;6.480;2022-10-30T11:50:06;16.42;;;6.03;;
36497;SDS011;22513;51.222;6.480;2022-10-30T11:52:40;13.95;;;6.38;;
36497;SDS011;22513;51.222;6.480;2022-10-30T11:55:13;13.10;;;6.05;;
36497;SDS011;22513;51.222;6.480;2022-10-30T11:57:48;15.68;;;5.88;;
36497;SDS011;22513;51.222;6.480;2022-10-30T12:02:47;11.25;;;5.65;;
36497;SDS011;22513;51.222;6.480;2022-10-30T12:07:50;11.55;;;6.05;;
36497;SDS011;22513;51.222;6.480;2022-10-30T12:10:27;17.80;;;6.72;;
36497;SDS011;22513;51.222;6.480;2022-10-30T12:12:53;10.23;;;5.57;;
36497;SDS011;22513;51.222;6.480;2022-10-30T12:15:20;11.50;;;5.60;;
36497;SDS011;22513;51.222;6.480;2022-10-30T12:17:53;16.17;;;6.82;;
36497;SDS011;22513;51.222;6.480;2022-10-30T12:20:23;13.32;;;5.70;;
36497;SDS011;22513;51.222;6.480;2022-10-30T12:22:49;11.60;;;5.72;;
36497;SDS011;22513;51.222;6.480;2022-10-30T12:25:24;12.45;;;5.25;;
36497;SDS011;22513;51.222;6.480;2022-10-30T12:30:44;11.55;;;5.53;;
36497;SDS011;22513;51.222;6.480;2022-10-30T12:33:22;14.50;;;5.50;;
36497;SDS011;22513;51.222;6.480;2022-10-30T12:51:57;22.55;;;7.60;;
36497;SDS011;22513;51.222;6.480;2022-10-30T12:54:24;12.48;;;5.35;;
36497;SDS011;22513;51.222;6.480;2022-10-30T12:57:27;12.27;;;5.47;;
36497;SDS011;22513;51.222;6.480;2022-10-30T12:59:55;10.68;;;5.70;;
36497;SDS011;22513;51.222;6.480;2022-10-30T13:05:53;15.52;;;6.03;;
36497;SDS011;22513;51.222;6.480;2022-10-30T13:11:10;17.27;;;5.93;;
36497;SDS011;22513;51.222;6.480;2022-10-30T13:13:47;13.40;;;5.82;;
36497;SDS011;22513;51.222;6.480;2022-10-30T13:16:25;13.25;;;5.53;;
36497;SDS011;22513;51.222;6.480;2022-10-30T13:18:54;13.15;;;6.72;;
36497;SDS011;22513;51.222;6.480;2022-10-30T13:24:01;12.63;;;5.53;;
36497;SDS011;22513;51.222;6.480;2022-10-30T13:29:06;12.02;;;5.90;;
36497;SDS011;22513;51.222;6.480;2022-10-30T13:34:46;13.20;;;5.97;;
36497;SDS011;22513;51.222;6.480;2022-10-30T13:48:05;19.77;;;6.28;;
36497;SDS011;22513;51.222;6.480;2022-10-30T13:53:26;14.20;;;6.20;;
36497;SDS011;22513;51.222;6.480;2022-10-30T13:55:56;12.98;;;6.50;;
36497;SDS011;22513;51.222;6.480;2022-10-30T14:01:18;16.52;;;5.38;;
36497;SDS011;22513;51.222;6.480;2022-10-30T14:03:48;14.10;;;5.68;;
36497;SDS011;22513;51.222;6.480;2022-10-30T14:06:49;11.40;;;5.65;;
36497;SDS011;22513;51.222;6.480;2022-10-30T14:28:27;9.15;;;5.28;;
36497;SDS011;22513;51.222;6.480;2022-10-30T14:33:50;12.93;;;5.18;;
36497;SDS011;22513;51.222;6.480;2022-10-30T14:36:21;12.50;;;5.70;;
36497;SDS011;22513;51.222;6.480;2022-10-30T14:44:10;13.43;;;5.70;;
36497;SDS011;22513;51.222;6.480;2022-10-30T14:51:57;9.65;;;5.57;;
36497;SDS011;22513;51.222;6.480;2022-10-30T14:57:21;12.38;;;5.35;;
36497;SDS011;22513;51.222;6.480;2022-10-30T15:02:52;10.18;;;5.70;;
36497;SDS011;22513;51.222;6.480;2022-10-30T15:07:53;13.98;;;5.18;;
36497;SDS011;22513;51.222;6.480;2022-10-30T15:10:32;13.15;;;6.57;;
36497;SDS011;22513;51.222;6.480;2022-10-30T15:13:21;15.20;;;5.60;;
36497;SDS011;22513;51.222;6.480;2022-10-30T15:16:00;14.45;;;5.82;;
36497;SDS011;22513;51.222;6.480;2022-10-30T15:18:31;10.55;;;5.68;;
36497;SDS011;22513;51.222;6.480;2022-10-30T15:21:02;13.52;;;5.88;;
36497;SDS011;22513;51.222;6.480;2022-10-30T15:23:30;14.00;;;5.70;;
36497;SDS011;22513;51.222;6.480;2022-10-30T15:25:59;8.27;;;5.17;;
36497;SDS011;22513;51.222;6.480;2022-10-30T15:28:29;12.52;;;6.05;;
36497;SDS011;22513;51.222;6.480;2022-10-30T15:31:07;13.32;;;5.80;;
36497;SDS011;22513;51.222;6.480;2022-10-30T15:33:47;13.75;;;5.30;;
36497;SDS011;22513;51.222;6.480;2022-10-30T15:39:05;15.93;;;5.88;;
36497;SDS011;22513;51.222;6.480;2022-10-30T15:41:41;15.40;;;6.60;;
36497;SDS011;22513;51.222;6.480;2022-10-30T15:46:44;16.13;;;6.70;;
36497;SDS011;22513;51.222;6.480;2022-10-30T15:49:14;14.23;;;5.90;;
36497;SDS011;22513;51.222;6.480;2022-10-30T15:51:45;12.82;;;7.07;;
36497;SDS011;22513;51.222;6.480;2022-10-30T15:54:12;12.07;;;6.65;;
36497;SDS011;22513;51.222;6.480;2022-10-30T15:56:44;13.60;;;6.80;;
36497;SDS011;22513;51.222;6.480;2022-10-30T15:59:44;16.30;;;6.47;;
36497;SDS011;22513;51.222;6.480;2022-10-30T16:02:15;13.95;;;6.47;;
36497;SDS011;22513;51.222;6.480;2022-10-30T16:04:47;13.93;;;7.25;;
36497;SDS011;22513;51.222;6.480;2022-10-30T16:07:21;11.18;;;6.78;;
36497;SDS011;22513;51.222;6.480;2022-10-30T16:12:17;13.82;;;7.85;;
36497;SDS011;22513;51.222;6.480;2022-10-30T16:14:43;17.10;;;8.50;;
36497;SDS011;22513;51.222;6.480;2022-10-30T16:17:09;19.08;;;8.68;;
36497;SDS011;22513;51.222;6.480;2022-10-30T16:19:40;17.27;;;9.23;;
36497;SDS011;22513;51.222;6.480;2022-10-30T16:22:12;15.95;;;8.48;;
36497;SDS011;22513;51.222;6.480;2022-10-30T16:24:39;19.55;;;7.80;;
36497;SDS011;22513;51.222;6.480;2022-10-30T16:27:06;16.08;;;6.90;;
36497;SDS011;22513;51.222;6.480;2022-10-30T16:29:37;16.63;;;8.70;;
36497;SDS011;22513;51.222;6.480;2022-10-30T16:32:05;14.45;;;8.00;;
36497;SDS011;22513;51.222;6.480;2022-10-30T16:34:37;17.92;;;8.68;;
36497;SDS011;22513;51.222;6.480;2022-10-30T16:37:04;14.07;;;8.85;;
36497;SDS011;22513;51.222;6.480;2022-10-30T16:39:35;21.95;;;9.80;;
36497;SDS011;22513;51.222;6.480;2022-10-30T16:42:02;12.77;;;8.27;;
36497;SDS011;22513;51.222;6.480;2022-10-30T16:44:31;15.40;;;8.07;;
36497;SDS011;22513;51.222;6.480;2022-10-30T16:49:45;14.70;;;7.68;;
36497;SDS011;22513;51.222;6.480;2022-10-30T16:52:17;15.07;;;6.45;;
36497;SDS011;22513;51.222;6.480;2022-10-30T16:54:49;13.48;;;7.05;;
36497;SDS011;22513;51.222;6.480;2022-10-30T17:02:43;16.00;;;6.75;;
36497;SDS011;22513;51.222;6.480;2022-10-30T17:05:19;18.38;;;7.88;;
36497;SDS011;22513;51.222;6.480;2022-10-30T17:10:36;15.50;;;8.85;;
36497;SDS011;22513;51.222;6.480;2022-10-30T17:18:48;16.88;;;7.65;;
36497;SDS011;22513;51.222;6.480;2022-10-30T17:21:57;13.32;;;6.03;;
36497;SDS011;22513;51.222;6.480;2022-10-30T17:26:34;13.52;;;7.07;;
36497;SDS011;22513;51.222;6.480;2022-10-30T17:29:04;12.73;;;6.93;;
36497;SDS011;22513;51.222;6.480;2022-10-30T17:31:40;12.48;;;6.18;;
36497;SDS011;22513;51.222;6.480;2022-10-30T17:34:11;9.65;;;6.07;;
36497;SDS011;22513;51.222;6.480;2022-10-30T17:36:39;11.40;;;6.10;;
36497;SDS011;22513;51.222;6.480;2022-10-30T17:39:05;12.95;;;6.63;;
36497;SDS011;22513;51.222;6.480;2022-10-30T17:41:31;12.55;;;6.93;;
36497;SDS011;22513;51.222;6.480;2022-10-30T17:43:57;13.93;;;7.10;;
36497;SDS011;22513;51.222;6.480;2022-10-30T17:46:22;11.38;;;6.57;;
36497;SDS011;22513;51.222;6.480;2022-10-30T17:48:48;14.20;;;7.63;;
36497;SDS011;22513;51.222;6.480;2022-10-30T17:51:15;15.20;;;7.75;;
36497;SDS011;22513;51.222;6.480;2022-10-30T17:53:41;13.50;;;6.80;;
36497;SDS011;22513;51.222;6.480;2022-10-30T17:58:53;10.05;;;6.20;;
36497;SDS011;22513;51.222;6.480;2022-10-30T18:01:20;14.00;;;6.47;;
36497;SDS011;22513;51.222;6.480;2022-10-30T18:03:51;15.20;;;6.18;;
36497;SDS011;22513;51.222;6.480;2022-10-30T18:06:19;11.27;;;5.90;;
36497;SDS011;22513;51.222;6.480;2022-10-30T18:08:47;10.77;;;6.68;;
36497;SDS011;22513;51.222;6.480;2022-10-30T18:11:13;20.30;;;6.70;;
36497;SDS011;22513;51.222;6.480;2022-10-30T18:13:41;13.20;;;6.30;;
36497;SDS011;22513;51.222;6.480;2022-10-30T18:16:11;12.82;;;5.97;;
36497;SDS011;22513;51.222;6.480;2022-10-30T18:18:40;13.25;;;5.85;;
36497;SDS011;22513;51.222;6.480;2022-10-30T18:21:10;14.98;;;6.60;;
36497;SDS011;22513;51.222;6.480;2022-10-30T18:23:38;9.23;;;6.45;;
36497;SDS011;22513;51.222;6.480;2022-10-30T18:26:03;11.48;;;5.75;;